Mustafa Sofuoglu — TCOJ7 — position and weather

sailwx.info

Track history (hours):
 
Tides and Currents Weather Stations Pressure Air Temp Water Temp Dewpoint Dewpoint Depression Visibility Wind Speed Wind Dir Waves Ship Positions

Mustafa Sofuoglu

Last reported at 2014-Sep-26 13:17 UTC. Time now 2014-Oct-21 13:36 UTC.
Position N 40°45' E 029°30'.
Warning: this ship's position is 25 days out of date.

Length 106 m; draft 6.7 m.

Type: Cargo ship. MMSI: 271000831.

Date/timePositionNaut miles runAvg speedWind from/ knotsBaromVisibWave heightAir tempDewpointWater temp
2014-Sep-26 13:17N 40°45' E 029°30'710.2
2014-Sep-26 12:33N 40°44' E 029°20'1212.0
2014-Sep-26 11:33N 40°48' E 029°05'1110.6
2014-Sep-26 10:33N 40°57' E 028°57'  
2014-Sep-23 06:11N 44°30' E 037°40'813.0
2014-Sep-23 05:34N 44°36' E 037°47'8 7.5
2014-Sep-23 04:34N 44°43' E 037°47'0 0.2
2014-Sep-23 03:28N 44°44' E 037°47'0 0.0
2014-Sep-23 02:28N 44°44' E 037°47'0 0.0
2014-Sep-23 01:31N 44°44' E 037°47'0 0.0
2014-Sep-23 00:31N 44°44' E 037°47'0 0.0
2014-Sep-22 23:31N 44°44' E 037°47'0 0.0
2014-Sep-22 22:31N 44°44' E 037°47'0 0.0
2014-Sep-22 21:31N 44°44' E 037°47'0 0.0
2014-Sep-22 20:28N 44°44' E 037°47'0 0.0
2014-Sep-22 19:31N 44°44' E 037°47'0 0.0
2014-Sep-22 18:31N 44°44' E 037°47'0 0.0
2014-Sep-22 17:31N 44°44' E 037°47'0 0.0
2014-Sep-22 16:31N 44°44' E 037°47'0 0.0
2014-Sep-22 15:31N 44°44' E 037°47'0 0.0
2014-Sep-22 14:31N 44°44' E 037°47'0 0.0
2014-Sep-22 13:31N 44°44' E 037°47'0 0.0
2014-Sep-22 12:31N 44°44' E 037°47'0 0.0
2014-Sep-22 11:31N 44°44' E 037°47'0 0.0
2014-Sep-22 10:31N 44°44' E 037°47'0 0.0
2014-Sep-22 09:31N 44°44' E 037°47'0 0.0
2014-Sep-22 08:31N 44°44' E 037°47'0 0.0
2014-Sep-22 07:25N 44°44' E 037°47'0 0.0
2014-Sep-22 06:31N 44°44' E 037°47'0 0.0
2014-Sep-22 05:31N 44°44' E 037°47'0 0.0
2014-Sep-22 04:28N 44°44' E 037°47'0 0.0
2014-Sep-22 03:31N 44°44' E 037°47'0 0.0
2014-Sep-22 02:31N 44°44' E 037°47'0 0.0
2014-Sep-22 01:31N 44°44' E 037°47'0 0.0
2014-Sep-22 00:31N 44°44' E 037°47'0 0.0
2014-Sep-21 23:32N 44°44' E 037°47'0 0.0
2014-Sep-21 22:32N 44°44' E 037°47'0 0.0
2014-Sep-21 21:32N 44°44' E 037°47'0 0.0
2014-Sep-21 20:32N 44°44' E 037°47'0 0.0
2014-Sep-21 19:32N 44°44' E 037°47'0 0.0
2014-Sep-21 18:32N 44°44' E 037°47'0 0.0
2014-Sep-21 17:32N 44°44' E 037°47'0 0.0
2014-Sep-21 16:32N 44°44' E 037°47'0 0.0
2014-Sep-21 15:32N 44°44' E 037°47'0 0.0
2014-Sep-21 14:32N 44°44' E 037°47'0 0.0
2014-Sep-21 13:32N 44°44' E 037°47'0 0.0
2014-Sep-21 12:32N 44°44' E 037°47'0 0.0
2014-Sep-21 11:32N 44°44' E 037°47'0 0.0
2014-Sep-21 10:32N 44°44' E 037°47'0 0.0
2014-Sep-21 09:32N 44°44' E 037°47'0 0.0
2014-Sep-21 08:29N 44°44' E 037°47'0 0.0
2014-Sep-21 07:32N 44°44' E 037°47'0 0.0
2014-Sep-21 06:29N 44°44' E 037°47'0 0.0
2014-Sep-21 05:32N 44°44' E 037°47'0 0.0
2014-Sep-21 04:29N 44°44' E 037°47'0 0.0
2014-Sep-21 03:32N 44°44' E 037°47'0 0.0
2014-Sep-21 02:32N 44°44' E 037°47'0 0.0
2014-Sep-21 01:29N 44°44' E 037°47'0 0.0
2014-Sep-21 00:32N 44°44' E 037°47'0 0.0
2014-Sep-20 23:32N 44°44' E 037°47'0 0.0
2014-Sep-20 22:32N 44°44' E 037°47'0 0.0
2014-Sep-20 21:29N 44°44' E 037°47'0 0.0
2014-Sep-20 20:32N 44°44' E 037°47'0 0.0
2014-Sep-20 19:32N 44°44' E 037°47'0 0.0
2014-Sep-20 18:32N 44°44' E 037°47'0 0.0
2014-Sep-20 17:32N 44°44' E 037°47'0 0.0
2014-Sep-20 16:32N 44°44' E 037°47'0 0.0
2014-Sep-20 15:29N 44°44' E 037°47'0 0.0
2014-Sep-20 14:32N 44°44' E 037°47'0 0.0
2014-Sep-20 13:32N 44°44' E 037°47'0 0.0
2014-Sep-20 12:32N 44°44' E 037°47'2 2.3
2014-Sep-20 11:34N 44°42' E 037°49'4 4.4
2014-Sep-20 10:33N 44°38' E 037°52'9 8.7
2014-Sep-20 09:33N 44°30' E 037°48'9 8.5
2014-Sep-20 08:33N 44°23' E 037°41'0 0.4
2014-Sep-20 07:33N 44°23' E 037°41'1 0.6
2014-Sep-20 06:33N 44°23' E 037°42'1 0.7
2014-Sep-20 05:32N 44°23' E 037°43'1 0.6
2014-Sep-20 04:33N 44°23' E 037°44'1 0.6
2014-Sep-20 03:33N 44°23' E 037°44'0 0.4
2014-Sep-20 02:32N 44°22' E 037°45'0 0.4
2014-Sep-20 01:32N 44°23' E 037°46'0 0.4
2014-Sep-20 00:33N 44°23' E 037°46'0 0.3
2014-Sep-19 23:32N 44°23' E 037°46'0 0.4
2014-Sep-19 22:34N 44°23' E 037°47'0 0.4
2014-Sep-19 21:33N 44°24' E 037°47'0 0.4
2014-Sep-19 20:33N 44°24' E 037°47'0 0.4
2014-Sep-19 19:33N 44°24' E 037°47'0 0.3
2014-Sep-19 18:33N 44°25' E 037°47'0 0.3
2014-Sep-19 17:33N 44°25' E 037°47'0 0.2
2014-Sep-19 16:32N 44°25' E 037°48'1 0.6
2014-Sep-19 15:34N 44°25' E 037°47'10 8.1
2014-Sep-19 14:18N 44°18' E 037°36'1 0.7
2014-Sep-19 13:32N 44°18' E 037°37'0 0.5
2014-Sep-19 12:33N 44°18' E 037°38'1 0.6
2014-Sep-19 11:33N 44°18' E 037°38'1 0.7
2014-Sep-19 10:33N 44°18' E 037°39'1 0.9
2014-Sep-19 09:33N 44°18' E 037°41'1 1.0
2014-Sep-19 08:33N 44°18' E 037°42'1 1.2
2014-Sep-19 07:32N 44°19' E 037°44'1 1.3
2014-Sep-19 06:33N 44°19' E 037°45'1 1.5
2014-Sep-19 05:33N 44°20' E 037°47'3 2.2
2014-Sep-19 04:22N 44°22' E 037°45'2 2.8
2014-Sep-19 03:33N 44°24' E 037°46'1 0.7
2014-Sep-19 02:33N 44°25' E 037°46'1 1.0
2014-Sep-19 01:33N 44°26' E 037°47'1 0.6
2014-Sep-19 00:34N 44°26' E 037°47'0 0.3
2014-Sep-18 23:33N 44°26' E 037°48'0 0.3
2014-Sep-18 22:33N 44°26' E 037°48'7 7.1
2014-Sep-18 21:34N 44°25' E 037°38'40011.4
2014-Sep-17 10:34N 41°19' E 029°35'9 9.5
2014-Sep-17 09:33N 41°17' E 029°23'10 8.2
2014-Sep-17 08:23N 41°15' E 029°10'17 9.3
2014-Sep-17 06:33N 40°60' E 028°60'1211.9
2014-Sep-17 05:32N 40°52' E 029°11'0 0.2
2014-Sep-17 04:32N 40°51' E 029°11'0 0.0
2014-Sep-17 03:26N 40°51' E 029°11'0 0.0
2014-Sep-17 02:26N 40°51' E 029°11'0 0.1
2014-Sep-17 01:28N 40°51' E 029°11'7 7.2
2014-Sep-17 00:34N 40°46' E 029°16'1211.5
2014-Sep-16 23:32N 40°46' E 029°31'0 0.3
2014-Sep-16 22:28N 40°46' E 029°31'0 0.0
2014-Sep-16 21:04N 40°46' E 029°31'0 0.0
2014-Sep-16 18:16N 40°46' E 029°31'0 0.0
2014-Sep-16 17:28N 40°46' E 029°31'0 0.0
2014-Sep-16 16:22N 40°46' E 029°31'0 0.0
2014-Sep-16 15:28N 40°46' E 029°31'0 0.0
2014-Sep-16 14:28N 40°46' E 029°31'0 0.0
2014-Sep-16 13:22N 40°46' E 029°31'  
Track history (hours):
 
Tides and Currents Weather Stations Pressure Air Temp Water Temp Dewpoint Dewpoint Depression Visibility Wind Speed Wind Dir Waves Ship Positions

Mustafa Sofuoglu

Last reported at 2014-Sep-26 13:17 UTC. Time now 2014-Oct-21 13:36 UTC.
Position N 40°45' E 029°30'.
Warning: this ship's position is 25 days out of date.

Length 106 m; draft 6.7 m.

Type: Cargo ship. MMSI: 271000831.

Date/timePositionNaut miles runAvg speedWind from/ knotsBaromVisibWave heightAir tempDewpointWater temp
2014-Sep-26 13:17N 40°45' E 029°30'710.2
2014-Sep-26 12:33N 40°44' E 029°20'1212.0
2014-Sep-26 11:33N 40°48' E 029°05'1110.6
2014-Sep-26 10:33N 40°57' E 028°57'  
2014-Sep-23 06:11N 44°30' E 037°40'813.0
2014-Sep-23 05:34N 44°36' E 037°47'8 7.5
2014-Sep-23 04:34N 44°43' E 037°47'0 0.2
2014-Sep-23 03:28N 44°44' E 037°47'0 0.0
2014-Sep-23 02:28N 44°44' E 037°47'0 0.0
2014-Sep-23 01:31N 44°44' E 037°47'0 0.0
2014-Sep-23 00:31N 44°44' E 037°47'0 0.0
2014-Sep-22 23:31N 44°44' E 037°47'0 0.0
2014-Sep-22 22:31N 44°44' E 037°47'0 0.0
2014-Sep-22 21:31N 44°44' E 037°47'0 0.0
2014-Sep-22 20:28N 44°44' E 037°47'0 0.0
2014-Sep-22 19:31N 44°44' E 037°47'0 0.0
2014-Sep-22 18:31N 44°44' E 037°47'0 0.0
2014-Sep-22 17:31N 44°44' E 037°47'0 0.0
2014-Sep-22 16:31N 44°44' E 037°47'0 0.0
2014-Sep-22 15:31N 44°44' E 037°47'0 0.0
2014-Sep-22 14:31N 44°44' E 037°47'0 0.0
2014-Sep-22 13:31N 44°44' E 037°47'0 0.0
2014-Sep-22 12:31N 44°44' E 037°47'0 0.0
2014-Sep-22 11:31N 44°44' E 037°47'0 0.0
2014-Sep-22 10:31N 44°44' E 037°47'0 0.0
2014-Sep-22 09:31N 44°44' E 037°47'0 0.0
2014-Sep-22 08:31N 44°44' E 037°47'0 0.0
2014-Sep-22 07:25N 44°44' E 037°47'0 0.0
2014-Sep-22 06:31N 44°44' E 037°47'0 0.0
2014-Sep-22 05:31N 44°44' E 037°47'0 0.0
2014-Sep-22 04:28N 44°44' E 037°47'0 0.0
2014-Sep-22 03:31N 44°44' E 037°47'0 0.0
2014-Sep-22 02:31N 44°44' E 037°47'0 0.0
2014-Sep-22 01:31N 44°44' E 037°47'0 0.0
2014-Sep-22 00:31N 44°44' E 037°47'0 0.0
2014-Sep-21 23:32N 44°44' E 037°47'0 0.0
2014-Sep-21 22:32N 44°44' E 037°47'0 0.0
2014-Sep-21 21:32N 44°44' E 037°47'0 0.0
2014-Sep-21 20:32N 44°44' E 037°47'0 0.0
2014-Sep-21 19:32N 44°44' E 037°47'0 0.0
2014-Sep-21 18:32N 44°44' E 037°47'0 0.0
2014-Sep-21 17:32N 44°44' E 037°47'0 0.0
2014-Sep-21 16:32N 44°44' E 037°47'0 0.0
2014-Sep-21 15:32N 44°44' E 037°47'0 0.0
2014-Sep-21 14:32N 44°44' E 037°47'0 0.0
2014-Sep-21 13:32N 44°44' E 037°47'0 0.0
2014-Sep-21 12:32N 44°44' E 037°47'0 0.0
2014-Sep-21 11:32N 44°44' E 037°47'0 0.0
2014-Sep-21 10:32N 44°44' E 037°47'0 0.0
2014-Sep-21 09:32N 44°44' E 037°47'0 0.0
2014-Sep-21 08:29N 44°44' E 037°47'0 0.0
2014-Sep-21 07:32N 44°44' E 037°47'0 0.0
2014-Sep-21 06:29N 44°44' E 037°47'0 0.0
2014-Sep-21 05:32N 44°44' E 037°47'0 0.0
2014-Sep-21 04:29N 44°44' E 037°47'0 0.0
2014-Sep-21 03:32N 44°44' E 037°47'0 0.0
2014-Sep-21 02:32N 44°44' E 037°47'0 0.0
2014-Sep-21 01:29N 44°44' E 037°47'0 0.0
2014-Sep-21 00:32N 44°44' E 037°47'0 0.0
2014-Sep-20 23:32N 44°44' E 037°47'0 0.0
2014-Sep-20 22:32N 44°44' E 037°47'0 0.0
2014-Sep-20 21:29N 44°44' E 037°47'0 0.0
2014-Sep-20 20:32N 44°44' E 037°47'0 0.0
2014-Sep-20 19:32N 44°44' E 037°47'0 0.0
2014-Sep-20 18:32N 44°44' E 037°47'0 0.0
2014-Sep-20 17:32N 44°44' E 037°47'0 0.0
2014-Sep-20 16:32N 44°44' E 037°47'0 0.0
2014-Sep-20 15:29N 44°44' E 037°47'0 0.0
2014-Sep-20 14:32N 44°44' E 037°47'0 0.0
2014-Sep-20 13:32N 44°44' E 037°47'0 0.0
2014-Sep-20 12:32N 44°44' E 037°47'2 2.3
2014-Sep-20 11:34N 44°42' E 037°49'4 4.4
2014-Sep-20 10:33N 44°38' E 037°52'9 8.7
2014-Sep-20 09:33N 44°30' E 037°48'9 8.5
2014-Sep-20 08:33N 44°23' E 037°41'0 0.4
2014-Sep-20 07:33N 44°23' E 037°41'1 0.6
2014-Sep-20 06:33N 44°23' E 037°42'1 0.7
2014-Sep-20 05:32N 44°23' E 037°43'1 0.6
2014-Sep-20 04:33N 44°23' E 037°44'1 0.6
2014-Sep-20 03:33N 44°23' E 037°44'0 0.4
2014-Sep-20 02:32N 44°22' E 037°45'0 0.4
2014-Sep-20 01:32N 44°23' E 037°46'0 0.4
2014-Sep-20 00:33N 44°23' E 037°46'0 0.3
2014-Sep-19 23:32N 44°23' E 037°46'0 0.4
2014-Sep-19 22:34N 44°23' E 037°47'0 0.4
2014-Sep-19 21:33N 44°24' E 037°47'0 0.4
2014-Sep-19 20:33N 44°24' E 037°47'0 0.4
2014-Sep-19 19:33N 44°24' E 037°47'0 0.3
2014-Sep-19 18:33N 44°25' E 037°47'0 0.3
2014-Sep-19 17:33N 44°25' E 037°47'0 0.2
2014-Sep-19 16:32N 44°25' E 037°48'1 0.6
2014-Sep-19 15:34N 44°25' E 037°47'10 8.1
2014-Sep-19 14:18N 44°18' E 037°36'1 0.7
2014-Sep-19 13:32N 44°18' E 037°37'0 0.5
2014-Sep-19 12:33N 44°18' E 037°38'1 0.6
2014-Sep-19 11:33N 44°18' E 037°38'1 0.7
2014-Sep-19 10:33N 44°18' E 037°39'1 0.9
2014-Sep-19 09:33N 44°18' E 037°41'1 1.0
2014-Sep-19 08:33N 44°18' E 037°42'1 1.2
2014-Sep-19 07:32N 44°19' E 037°44'1 1.3
2014-Sep-19 06:33N 44°19' E 037°45'1 1.5
2014-Sep-19 05:33N 44°20' E 037°47'3 2.2
2014-Sep-19 04:22N 44°22' E 037°45'2 2.8
2014-Sep-19 03:33N 44°24' E 037°46'1 0.7
2014-Sep-19 02:33N 44°25' E 037°46'1 1.0
2014-Sep-19 01:33N 44°26' E 037°47'1 0.6
2014-Sep-19 00:34N 44°26' E 037°47'0 0.3
2014-Sep-18 23:33N 44°26' E 037°48'0 0.3
2014-Sep-18 22:33N 44°26' E 037°48'7 7.1
2014-Sep-18 21:34N 44°25' E 037°38'40011.4
2014-Sep-17 10:34N 41°19' E 029°35'9 9.5
2014-Sep-17 09:33N 41°17' E 029°23'10 8.2
2014-Sep-17 08:23N 41°15' E 029°10'17 9.3
2014-Sep-17 06:33N 40°60' E 028°60'1211.9
2014-Sep-17 05:32N 40°52' E 029°11'0 0.2
2014-Sep-17 04:32N 40°51' E 029°11'0 0.0
2014-Sep-17 03:26N 40°51' E 029°11'0 0.0
2014-Sep-17 02:26N 40°51' E 029°11'0 0.1
2014-Sep-17 01:28N 40°51' E 029°11'7 7.2
2014-Sep-17 00:34N 40°46' E 029°16'1211.5
2014-Sep-16 23:32N 40°46' E 029°31'0 0.3
2014-Sep-16 22:28N 40°46' E 029°31'0 0.0
2014-Sep-16 21:04N 40°46' E 029°31'0 0.0
2014-Sep-16 18:16N 40°46' E 029°31'0 0.0
2014-Sep-16 17:28N 40°46' E 029°31'0 0.0
2014-Sep-16 16:22N 40°46' E 029°31'0 0.0
2014-Sep-16 15:28N 40°46' E 029°31'0 0.0
2014-Sep-16 14:28N 40°46' E 029°31'0 0.0
2014-Sep-16 13:22N 40°46' E 029°31'  

Dump ship's entire track history